createdAt,value
2018-05-11T00:00:02.776Z,790.35
2018-05-11T00:00:06.873Z,790.37
2018-05-11T00:00:11.189Z,790.4
2018-05-11T00:00:15.423Z,790.4
2018-05-11T00:00:19.522Z,790.4
2018-05-11T00:00:23.419Z,790.36
2018-05-11T00:00:27.734Z,790.38
2018-05-11T00:00:31.944Z,790.34
2018-05-11T00:00:36.148Z,790.29
2018-05-11T00:00:40.355Z,790.37
2018-05-11T00:00:44.670Z,790.33
2018-05-11T00:00:48.878Z,790.31
2018-05-11T00:00:53.228Z,790.36
2018-05-11T00:00:57.652Z,790.39
2018-05-11T00:01:01.867Z,790.38
2018-05-11T00:01:06.095Z,790.38
2018-05-11T00:01:10.301Z,790.31
2018-05-11T00:01:14.517Z,790.34
2018-05-11T00:01:18.730Z,790.36
2018-05-11T00:01:22.838Z,790.38
2018-05-11T00:01:27.051Z,790.37
2018-05-11T00:01:31.265Z,790.37
2018-05-11T00:01:35.367Z,790.37
2018-05-11T00:01:39.701Z,790.35
2018-05-11T00:01:43.805Z,790.34
2018-05-11T00:01:47.912Z,790.37
2018-05-11T00:01:52.235Z,790.3
2018-05-11T00:01:56.335Z,790.37
2018-05-11T00:02:00.655Z,790.38
2018-05-11T00:02:04.771Z,790.34
2018-05-11T00:02:09.100Z,790.36
2018-05-11T00:02:13.322Z,790.32
2018-05-11T00:02:17.533Z,790.35
2018-05-11T00:02:21.638Z,790.38
2018-05-11T00:02:25.861Z,790.41
2018-05-11T00:02:30.072Z,790.38
2018-05-11T00:02:34.394Z,790.38
2018-05-11T00:02:38.611Z,790.41
2018-05-11T00:02:42.718Z,790.39
2018-05-11T00:02:46.926Z,790.43
2018-05-11T00:02:51.131Z,790.38
2018-05-11T00:02:55.343Z,790.43
2018-05-11T00:02:59.669Z,790.43
2018-05-11T00:03:03.971Z,790.43
2018-05-11T00:03:08.292Z,790.45
2018-05-11T00:03:12.621Z,790.39
2018-05-11T00:03:16.945Z,790.37
2018-05-11T00:03:21.159Z,790.35
2018-05-11T00:03:25.050Z,790.44
2018-05-11T00:03:29.256Z,790.45
2018-05-11T00:03:33.569Z,790.42
2018-05-11T00:03:37.777Z,790.43
2018-05-11T00:03:41.881Z,790.45
2018-05-11T00:03:46.205Z,790.49
2018-05-11T00:03:50.370Z,790.46
2018-05-11T00:03:54.685Z,790.43
2018-05-11T00:03:58.904Z,790.45
2018-05-11T00:04:03.244Z,790.46
2018-05-11T00:04:07.460Z,790.46
2018-05-11T00:04:11.702Z,790.5
2018-05-11T00:04:16.031Z,790.5
2018-05-11T00:04:20.363Z,790.46
2018-05-11T00:04:24.680Z,790.46
2018-05-11T00:04:28.793Z,790.5
2018-05-11T00:04:33.128Z,790.52
2018-05-11T00:04:37.344Z,790.46
2018-05-11T00:04:41.661Z,790.46
2018-05-11T00:04:45.881Z,790.51
2018-05-11T00:04:50.099Z,790.51
2018-05-11T00:04:54.307Z,790.51
2018-05-11T00:04:58.572Z,790.51
2018-05-11T00:05:02.888Z,790.52
2018-05-11T00:05:07.108Z,790.52
2018-05-11T00:05:11.322Z,790.5
2018-05-11T00:05:15.635Z,790.48
2018-05-11T00:05:19.952Z,790.45
2018-05-11T00:05:24.166Z,790.5
2018-05-11T00:05:28.495Z,790.52
2018-05-11T00:05:32.711Z,790.53
2018-05-11T00:05:36.931Z,790.49
2018-05-11T00:05:41.261Z,790.45
2018-05-11T00:05:45.581Z,790.51
2018-05-11T00:05:49.791Z,790.51
2018-05-11T00:05:54.117Z,790.53
2018-05-11T00:05:58.321Z,790.55
2018-05-11T00:06:02.680Z,790.5
2018-05-11T00:06:06.781Z,790.53
2018-05-11T00:06:11.075Z,790.55
2018-05-11T00:06:15.296Z,790.52
2018-05-11T00:06:19.514Z,790.48
2018-05-11T00:06:23.724Z,790.48
2018-05-11T00:06:27.931Z,790.47
2018-05-11T00:06:31.923Z,790.49
2018-05-11T00:06:36.272Z,790.52
2018-05-11T00:06:40.480Z,790.46
2018-05-11T00:06:44.579Z,790.52
2018-05-11T00:06:48.794Z,790.54
2018-05-11T00:06:52.789Z,790.59
2018-05-11T00:06:56.997Z,790.56
2018-05-11T00:07:01.006Z,790.57
2018-05-11T00:07:05.264Z,790.5
2018-05-11T00:07:09.364Z,790.57
2018-05-11T00:07:13.479Z,790.59
2018-05-11T00:07:17.698Z,790.58
2018-05-11T00:07:21.912Z,790.57
2018-05-11T00:07:26.124Z,790.56
2018-05-11T00:07:30.454Z,790.54
2018-05-11T00:07:34.657Z,790.56
2018-05-11T00:07:38.973Z,790.59
2018-05-11T00:07:43.294Z,790.55
2018-05-11T00:07:47.503Z,790.53
2018-05-11T00:07:51.833Z,790.55
2018-05-11T00:07:55.933Z,790.58
2018-05-11T00:08:00.146Z,790.57
2018-05-11T00:08:04.148Z,790.57
2018-05-11T00:08:08.038Z,790.56
2018-05-11T00:08:12.031Z,790.56
2018-05-11T00:08:16.237Z,790.55
2018-05-11T00:08:20.354Z,790.55
2018-05-11T00:08:24.707Z,790.56
2018-05-11T00:08:29.025Z,790.53
2018-05-11T00:08:33.342Z,790.54
2018-05-11T00:08:37.452Z,790.56
2018-05-11T00:08:41.562Z,790.56
2018-05-11T00:08:45.776Z,790.59
2018-05-11T00:08:49.766Z,790.58
2018-05-11T00:08:53.976Z,790.57
2018-05-11T00:08:58.188Z,790.6
2018-05-11T00:09:02.509Z,790.56
2018-05-11T00:09:06.612Z,790.56
2018-05-11T00:09:10.844Z,790.6
2018-05-11T00:09:15.062Z,790.59
2018-05-11T00:09:19.381Z,790.63
2018-05-11T00:09:23.594Z,790.63
2018-05-11T00:09:27.590Z,790.6
2018-05-11T00:09:31.702Z,790.59
2018-05-11T00:09:35.917Z,790.61
2018-05-11T00:09:40.237Z,790.62
2018-05-11T00:09:44.448Z,790.58
2018-05-11T00:09:48.654Z,790.58
2018-05-11T00:09:52.871Z,790.61
2018-05-11T00:09:57.052Z,790.59
2018-05-11T00:10:01.377Z,790.59
2018-05-11T00:10:05.383Z,790.59
2018-05-11T00:10:09.589Z,790.61
2018-05-11T00:10:13.915Z,790.61
2018-05-11T00:10:18.247Z,790.61
2018-05-11T00:10:22.463Z,790.62
2018-05-11T00:10:26.797Z,790.62
2018-05-11T00:10:31.017Z,790.63
2018-05-11T00:10:35.344Z,790.63
2018-05-11T00:10:39.561Z,790.66
2018-05-11T00:10:43.769Z,790.61
2018-05-11T00:10:47.879Z,790.58
2018-05-11T00:10:52.093Z,790.64
2018-05-11T00:10:56.415Z,790.65
2018-05-11T00:11:00.732Z,790.65
2018-05-11T00:11:04.889Z,790.65
2018-05-11T00:11:09.099Z,790.65
2018-05-11T00:11:13.305Z,790.65
2018-05-11T00:11:17.517Z,790.68
2018-05-11T00:11:21.839Z,790.62
2018-05-11T00:11:26.162Z,790.64
2018-05-11T00:11:30.268Z,790.66
2018-05-11T00:11:34.257Z,790.64
2018-05-11T00:11:38.478Z,790.62
2018-05-11T00:11:42.798Z,790.65
2018-05-11T00:11:47.178Z,790.67
2018-05-11T00:11:51.401Z,790.69
2018-05-11T00:11:55.614Z,790.68
2018-05-11T00:11:59.840Z,790.64
2018-05-11T00:12:04.228Z,790.66
2018-05-11T00:12:08.331Z,790.67
2018-05-11T00:12:12.433Z,790.65
2018-05-11T00:12:16.532Z,790.67
2018-05-11T00:12:20.632Z,790.69
2018-05-11T00:12:24.952Z,790.69
2018-05-11T00:12:29.065Z,790.69
2018-05-11T00:12:33.274Z,790.72
2018-05-11T00:12:37.373Z,790.69
2018-05-11T00:12:41.477Z,790.7
2018-05-11T00:12:45.804Z,790.7
2018-05-11T00:12:50.127Z,790.7
2018-05-11T00:12:54.445Z,790.69
2018-05-11T00:12:58.546Z,790.73
2018-05-11T00:13:02.757Z,790.71
2018-05-11T00:13:06.964Z,790.72
2018-05-11T00:13:11.078Z,790.72
2018-05-11T00:13:15.286Z,790.72
2018-05-11T00:13:19.613Z,790.73
2018-05-11T00:13:23.820Z,790.71
2018-05-11T00:13:28.140Z,790.68
2018-05-11T00:13:32.454Z,790.69
2018-05-11T00:13:36.664Z,790.75
2018-05-11T00:13:40.768Z,790.68
2018-05-11T00:13:45.091Z,790.71
2018-05-11T00:13:49.307Z,790.69
2018-05-11T00:13:53.576Z,790.7
2018-05-11T00:13:57.895Z,790.7
2018-05-11T00:14:02.216Z,790.72
2018-05-11T00:14:06.215Z,790.74
2018-05-11T00:14:10.427Z,790.77
2018-05-11T00:14:14.754Z,790.73
2018-05-11T00:14:18.964Z,790.71
2018-05-11T00:14:23.173Z,790.74
2018-05-11T00:14:27.172Z,790.8
2018-05-11T00:14:31.492Z,790.76
2018-05-11T00:14:35.868Z,790.76
2018-05-11T00:14:40.191Z,790.78
2018-05-11T00:14:44.185Z,790.74
2018-05-11T00:14:48.403Z,790.76
2018-05-11T00:14:52.622Z,790.73
2018-05-11T00:14:56.827Z,790.78
2018-05-11T00:15:00.890Z,790.72
2018-05-11T00:15:05.269Z,790.73
2018-05-11T00:15:09.486Z,790.73
2018-05-11T00:15:13.810Z,790.76
2018-05-11T00:15:17.929Z,790.74
2018-05-11T00:15:22.141Z,790.75
2018-05-11T00:15:26.420Z,790.76
2018-05-11T00:15:30.742Z,790.76
2018-05-11T00:15:34.959Z,790.75
2018-05-11T00:15:39.168Z,790.75
2018-05-11T00:15:43.602Z,790.75
2018-05-11T00:15:47.824Z,790.78
2018-05-11T00:15:52.064Z,790.79
2018-05-11T00:15:56.381Z,790.78
2018-05-11T00:16:00.595Z,790.74
2018-05-11T00:16:04.815Z,790.74
2018-05-11T00:16:08.919Z,790.77
2018-05-11T00:16:13.243Z,790.75
2018-05-11T00:16:17.457Z,790.75
2018-05-11T00:16:21.558Z,790.75
2018-05-11T00:16:25.666Z,790.72
2018-05-11T00:16:29.869Z,790.76
2018-05-11T00:16:33.866Z,790.72
2018-05-11T00:16:38.207Z,790.75
2018-05-11T00:16:42.314Z,790.73
2018-05-11T00:16:46.605Z,790.71
2018-05-11T00:16:50.929Z,790.72
2018-05-11T00:16:55.141Z,790.72
2018-05-11T00:16:59.349Z,790.73
2018-05-11T00:17:03.356Z,790.69
2018-05-11T00:17:07.458Z,790.7
2018-05-11T00:17:11.670Z,790.69
2018-05-11T00:17:15.875Z,790.71
2018-05-11T00:17:20.086Z,790.72
2018-05-11T00:17:24.405Z,790.72
2018-05-11T00:17:28.512Z,790.75
2018-05-11T00:17:32.727Z,790.74
2018-05-11T00:17:37.048Z,790.69
2018-05-11T00:17:41.365Z,790.72
2018-05-11T00:17:45.248Z,790.7
2018-05-11T00:17:49.562Z,790.7
2018-05-11T00:17:53.893Z,790.68
2018-05-11T00:17:58.206Z,790.73
2018-05-11T00:18:02.417Z,790.74
2018-05-11T00:18:06.635Z,790.72
2018-05-11T00:18:10.846Z,790.75
2018-05-11T00:18:14.943Z,790.77
2018-05-11T00:18:19.060Z,790.77
2018-05-11T00:18:23.270Z,790.77
2018-05-11T00:18:27.605Z,790.76
2018-05-11T00:18:31.703Z,790.74
2018-05-11T00:18:35.804Z,790.75
2018-05-11T00:18:40.127Z,790.78
2018-05-11T00:18:44.337Z,790.77
2018-05-11T00:18:48.557Z,790.77
2018-05-11T00:18:52.845Z,790.77
2018-05-11T00:18:57.058Z,790.74
2018-05-11T00:19:01.270Z,790.75
2018-05-11T00:19:05.273Z,790.73
2018-05-11T00:19:09.394Z,790.72
2018-05-11T00:19:13.710Z,790.76
2018-05-11T00:19:17.928Z,790.75
2018-05-11T00:19:22.141Z,790.75
2018-05-11T00:19:26.364Z,790.73
2018-05-11T00:19:30.570Z,790.71
2018-05-11T00:19:34.775Z,790.76
2018-05-11T00:19:38.984Z,790.75
2018-05-11T00:19:43.196Z,790.74
2018-05-11T00:19:47.313Z,790.71
2018-05-11T00:19:51.642Z,790.76
2018-05-11T00:19:55.962Z,790.76
2018-05-11T00:20:00.175Z,790.72
2018-05-11T00:20:04.393Z,790.71
2018-05-11T00:20:08.496Z,790.74
2018-05-11T00:20:12.488Z,790.74
2018-05-11T00:20:16.587Z,790.7
2018-05-11T00:20:20.912Z,790.68
2018-05-11T00:20:25.237Z,790.71
2018-05-11T00:20:29.347Z,790.72
2018-05-11T00:20:33.556Z,790.74
2018-05-11T00:20:37.762Z,790.73
2018-05-11T00:20:41.862Z,790.75
2018-05-11T00:20:46.068Z,790.71
2018-05-11T00:20:50.478Z,790.66
2018-05-11T00:20:54.806Z,790.68
2018-05-11T00:20:59.119Z,790.72
2018-05-11T00:21:03.337Z,790.73
2018-05-11T00:21:07.555Z,790.74
2018-05-11T00:21:11.894Z,790.73
2018-05-11T00:21:16.104Z,790.7
2018-05-11T00:21:20.322Z,790.73
2018-05-11T00:21:24.534Z,790.75
2018-05-11T00:21:28.862Z,790.74
2018-05-11T00:21:33.070Z,790.76
2018-05-11T00:21:37.068Z,790.77
2018-05-11T00:21:41.177Z,790.75
2018-05-11T00:21:45.489Z,790.75
2018-05-11T00:21:49.593Z,790.77
2018-05-11T00:21:53.587Z,790.78
2018-05-11T00:21:57.908Z,790.78
2018-05-11T00:22:02.117Z,790.8
2018-05-11T00:22:06.004Z,790.79
2018-05-11T00:22:10.105Z,790.78
2018-05-11T00:22:14.181Z,790.8
2018-05-11T00:22:18.406Z,790.83
2018-05-11T00:22:22.728Z,790.7
2018-05-11T00:22:27.053Z,790.77
2018-05-11T00:22:31.266Z,790.77
2018-05-11T00:22:35.472Z,790.79
2018-05-11T00:22:39.784Z,790.79
2018-05-11T00:22:43.883Z,790.8
2018-05-11T00:22:48.203Z,790.79
2018-05-11T00:22:52.417Z,790.76
2018-05-11T00:22:56.637Z,790.76
2018-05-11T00:23:00.739Z,790.79
2018-05-11T00:23:04.950Z,790.77
2018-05-11T00:23:08.942Z,790.79
2018-05-11T00:23:13.147Z,790.76
2018-05-11T00:23:17.463Z,790.78
2018-05-11T00:23:22.019Z,790.76
2018-05-11T00:23:26.483Z,790.81
2018-05-11T00:23:31.308Z,790.79
2018-05-11T00:23:36.389Z,790.8
2018-05-11T00:23:40.722Z,790.85
2018-05-11T00:23:44.826Z,790.81
2018-05-11T00:23:49.224Z,790.81
2018-05-11T00:23:53.437Z,790.81
2018-05-11T00:23:57.431Z,790.77
2018-05-11T00:24:01.643Z,790.75
2018-05-11T00:24:05.823Z,790.76
2018-05-11T00:24:46.031Z,790.83
2018-05-11T00:24:50.238Z,790.86
2018-05-11T00:24:54.557Z,790.84
2018-05-11T00:24:58.766Z,790.85
2018-05-11T00:25:02.977Z,790.83
2018-05-11T00:25:06.975Z,790.82
2018-05-11T00:25:11.076Z,790.85
2018-05-11T00:25:15.395Z,790.85
2018-05-11T00:25:19.607Z,790.8
2018-05-11T00:25:23.920Z,790.84
2018-05-11T00:25:28.126Z,790.86
2018-05-11T00:25:32.342Z,790.87
2018-05-11T00:25:36.663Z,790.85
2018-05-11T00:25:41.013Z,790.89
2018-05-11T00:25:45.230Z,790.86
2018-05-11T00:25:49.546Z,790.9
2018-05-11T00:25:53.650Z,790.89
2018-05-11T00:25:57.855Z,790.9
2018-05-11T00:26:02.193Z,790.91
2018-05-11T00:26:06.406Z,790.91
2018-05-11T00:26:10.729Z,790.87
2018-05-11T00:26:14.943Z,790.89
2018-05-11T00:26:19.262Z,790.86
2018-05-11T00:26:23.581Z,790.88
2018-05-11T00:26:27.793Z,790.87
2018-05-11T00:26:32.104Z,790.87
2018-05-11T00:26:36.204Z,790.87
2018-05-11T00:26:40.316Z,790.85
2018-05-11T00:26:44.524Z,790.88
2018-05-11T00:26:48.747Z,790.88
2018-05-11T00:26:53.067Z,790.89
2018-05-11T00:26:57.055Z,790.87
2018-05-11T00:27:01.154Z,790.9
2018-05-11T00:27:05.262Z,790.91
2018-05-11T00:27:09.488Z,790.86
2018-05-11T00:27:13.800Z,790.84
2018-05-11T00:27:17.903Z,790.85
2018-05-11T00:27:22.116Z,790.89
2018-05-11T00:27:26.326Z,790.86
2018-05-11T00:27:30.662Z,790.89
2018-05-11T00:27:34.875Z,790.85
2018-05-11T00:27:39.085Z,790.88
2018-05-11T00:27:43.303Z,790.84
2018-05-11T00:27:47.518Z,790.88
2018-05-11T00:27:51.838Z,790.85
2018-05-11T00:27:55.829Z,790.88
2018-05-11T00:28:00.158Z,790.9
2018-05-11T00:28:04.366Z,790.86
2018-05-11T00:28:08.579Z,790.78
2018-05-11T00:28:12.682Z,790.84
2018-05-11T00:28:17.007Z,790.84
2018-05-11T00:28:21.214Z,790.85
2018-05-11T00:28:25.555Z,790.84
2018-05-11T00:28:29.766Z,790.83
2018-05-11T00:28:34.083Z,790.89
2018-05-11T00:28:38.400Z,790.89
2018-05-11T00:28:42.722Z,790.86
2018-05-11T00:28:46.939Z,790.88
2018-05-11T00:28:51.169Z,790.83
2018-05-11T00:28:55.490Z,790.88
2018-05-11T00:28:59.377Z,790.89
2018-05-11T00:29:03.592Z,790.88
2018-05-11T00:29:07.821Z,790.88
2018-05-11T00:29:12.039Z,790.88
2018-05-11T00:29:16.252Z,790.9
2018-05-11T00:29:20.583Z,790.87
2018-05-11T00:29:24.899Z,790.87
2018-05-11T00:29:29.121Z,790.87
2018-05-11T00:29:33.231Z,790.85
2018-05-11T00:29:37.549Z,790.85
2018-05-11T00:29:41.758Z,790.88
2018-05-11T00:29:46.081Z,790.88
2018-05-11T00:29:50.292Z,790.82
2018-05-11T00:29:54.390Z,790.81
2018-05-11T00:29:58.499Z,790.84
2018-05-11T00:30:02.718Z,790.88
2018-05-11T00:30:06.949Z,790.87
2018-05-11T00:30:10.945Z,790.88
2018-05-11T00:30:15.277Z,790.86
2018-05-11T00:30:19.610Z,790.86
2018-05-11T00:30:23.829Z,790.92
2018-05-11T00:30:28.144Z,790.91
2018-05-11T00:30:32.369Z,790.91
2018-05-11T00:30:36.576Z,790.91
2018-05-11T00:30:40.781Z,790.92
2018-05-11T00:30:45.114Z,790.9
2018-05-11T00:30:49.318Z,790.93
2018-05-11T00:30:53.523Z,790.9
2018-05-11T00:30:57.737Z,790.92
2018-05-11T00:31:02.207Z,790.89
2018-05-11T00:31:06.320Z,790.9
2018-05-11T00:31:10.537Z,790.94
2018-05-11T00:31:14.861Z,790.91
2018-05-11T00:31:19.190Z,790.88
2018-05-11T00:31:23.516Z,790.94
2018-05-11T00:31:27.734Z,790.9
2018-05-11T00:31:32.053Z,790.9
2018-05-11T00:31:36.259Z,790.89
2018-05-11T00:31:40.575Z,790.93
2018-05-11T00:31:44.897Z,790.91
2018-05-11T00:31:49.114Z,790.92
2018-05-11T00:31:53.329Z,790.91
2018-05-11T00:31:57.651Z,790.94
2018-05-11T00:32:01.643Z,790.9
2018-05-11T00:32:05.747Z,790.93
2018-05-11T00:32:10.058Z,790.92
2018-05-11T00:32:14.373Z,790.91
2018-05-11T00:32:18.554Z,790.9
2018-05-11T00:32:22.866Z,790.9
2018-05-11T00:32:26.971Z,790.94
2018-05-11T00:32:31.196Z,790.94
2018-05-11T00:32:35.404Z,790.94
2018-05-11T00:32:39.720Z,790.96
2018-05-11T00:32:44.094Z,790.9
2018-05-11T00:32:48.412Z,790.91
2018-05-11T00:32:52.747Z,790.95
2018-05-11T00:32:57.058Z,790.95
2018-05-11T00:33:01.270Z,790.95
2018-05-11T00:33:05.482Z,790.89
2018-05-11T00:33:09.697Z,790.94
2018-05-11T00:33:14.013Z,790.96
2018-05-11T00:33:18.114Z,790.9
2018-05-11T00:33:22.338Z,790.93
2018-05-11T00:33:26.559Z,790.93
2018-05-11T00:33:30.877Z,790.96
2018-05-11T00:33:35.191Z,790.91
2018-05-11T00:33:39.414Z,790.94
2018-05-11T00:33:43.618Z,790.95
2018-05-11T00:33:47.718Z,790.97
2018-05-11T00:33:52.040Z,790.96
2018-05-11T00:33:56.252Z,790.96
2018-05-11T00:34:00.463Z,790.98
2018-05-11T00:34:04.690Z,790.95
2018-05-11T00:34:08.805Z,790.98
2018-05-11T00:34:13.091Z,790.94
2018-05-11T00:34:17.420Z,790.98
2018-05-11T00:34:21.527Z,790.98
2018-05-11T00:34:25.740Z,790.98
2018-05-11T00:34:29.899Z,791
2018-05-11T00:34:34.108Z,790.98
2018-05-11T00:34:38.326Z,790.98
2018-05-11T00:34:42.598Z,790.98
2018-05-11T00:34:46.804Z,790.96
2018-05-11T00:34:51.128Z,790.99
2018-05-11T00:34:55.450Z,790.95
2018-05-11T00:34:59.765Z,790.96
2018-05-11T00:35:03.981Z,790.98
2018-05-11T00:35:08.190Z,791.01
2018-05-11T00:35:12.408Z,790.98
2018-05-11T00:35:16.724Z,790.94
2018-05-11T00:35:21.043Z,790.98
2018-05-11T00:35:25.360Z,790.96
2018-05-11T00:35:29.565Z,790.98
2018-05-11T00:35:33.790Z,790.96
2018-05-11T00:35:38.015Z,790.96
2018-05-11T00:35:42.114Z,790.99
2018-05-11T00:35:46.328Z,791
2018-05-11T00:35:50.537Z,790.97
2018-05-11T00:35:54.849Z,790.96
2018-05-11T00:35:59.181Z,790.94
2018-05-11T00:36:03.495Z,790.97
2018-05-11T00:36:07.604Z,790.97
2018-05-11T00:36:11.932Z,790.96
2018-05-11T00:36:16.157Z,790.95
2018-05-11T00:36:20.363Z,790.97
2018-05-11T00:36:24.681Z,790.97
2018-05-11T00:36:28.991Z,790.96
2018-05-11T00:36:33.091Z,790.97
2018-05-11T00:36:37.301Z,790.96
2018-05-11T00:36:41.621Z,791
2018-05-11T00:36:45.832Z,790.97
2018-05-11T00:36:50.037Z,790.96
2018-05-11T00:36:54.144Z,790.97
2018-05-11T00:36:58.459Z,790.98
2018-05-11T00:37:02.706Z,791
2018-05-11T00:37:06.920Z,790.98
2018-05-11T00:37:11.023Z,790.98
2018-05-11T00:37:15.418Z,790.99
2018-05-11T00:37:19.630Z,791
2018-05-11T00:37:23.736Z,790.93
2018-05-11T00:37:27.956Z,790.96
2018-05-11T00:37:32.272Z,791.01
2018-05-11T00:37:36.595Z,791.02
2018-05-11T00:37:40.812Z,790.99
2018-05-11T00:37:45.130Z,791.01
2018-05-11T00:37:49.340Z,791.03
2018-05-11T00:37:53.550Z,790.98
2018-05-11T00:37:57.653Z,791
2018-05-11T00:38:01.869Z,791.07
2018-05-11T00:38:05.876Z,791.03
2018-05-11T00:38:10.184Z,790.99
2018-05-11T00:38:14.395Z,791.05
2018-05-11T00:38:18.727Z,791.01
2018-05-11T00:38:22.950Z,791
2018-05-11T00:38:27.156Z,791
2018-05-11T00:38:31.485Z,791.02
2018-05-11T00:38:35.600Z,791.03
2018-05-11T00:38:39.919Z,791.05
2018-05-11T00:38:44.131Z,791.03
2018-05-11T00:38:48.445Z,791.06
2018-05-11T00:38:52.654Z,791.06
2018-05-11T00:38:56.861Z,791.02
2018-05-11T00:39:00.964Z,791.04
2018-05-11T00:39:05.289Z,791.06
2018-05-11T00:39:09.286Z,791.02
2018-05-11T00:39:13.389Z,791.02
2018-05-11T00:39:17.606Z,791.02
2018-05-11T00:39:21.938Z,791.04
2018-05-11T00:39:26.187Z,791.02
2018-05-11T00:39:30.297Z,791.05
2018-05-11T00:39:34.613Z,791.04
2018-05-11T00:39:38.927Z,791.06
2018-05-11T00:39:43.136Z,791.02
2018-05-11T00:39:47.342Z,791.07
2018-05-11T00:39:51.665Z,791.04
2018-05-11T00:39:55.873Z,791.06
2018-05-11T00:40:00.080Z,791.04
2018-05-11T00:40:04.148Z,791.04
2018-05-11T00:40:08.385Z,791.05
2018-05-11T00:40:12.615Z,791.02
2018-05-11T00:40:16.939Z,791.03
2018-05-11T00:40:21.156Z,791.06
2018-05-11T00:40:25.261Z,791.04
2018-05-11T00:40:29.465Z,791.05
2018-05-11T00:40:33.674Z,791.02
2018-05-11T00:40:37.788Z,791.09
2018-05-11T00:40:42.101Z,791.07
2018-05-11T00:40:46.210Z,791.05
2018-05-11T00:40:50.201Z,791.08
2018-05-11T00:40:54.326Z,791.03
2018-05-11T00:40:58.689Z,791.09
2018-05-11T00:41:03.009Z,791.06
2018-05-11T00:41:07.107Z,791.08
2018-05-11T00:41:11.320Z,791.1
2018-05-11T00:41:15.642Z,791.08
2018-05-11T00:41:19.743Z,791.06
2018-05-11T00:41:23.843Z,791
2018-05-11T00:41:28.051Z,791.11
2018-05-11T00:41:32.264Z,791.08
2018-05-11T00:41:36.476Z,791.05
2018-05-11T00:41:40.796Z,791.05
2018-05-11T00:41:45.006Z,791.07
2018-05-11T00:41:49.222Z,791.09
2018-05-11T00:41:53.431Z,791.09
2018-05-11T00:41:57.760Z,791.09
2018-05-11T00:42:01.974Z,791.1
2018-05-11T00:42:05.969Z,791.13
2018-05-11T00:42:10.182Z,791.17
2018-05-11T00:42:14.391Z,791.19
2018-05-11T00:42:18.489Z,791.19
2018-05-11T00:42:22.593Z,791.2
2018-05-11T00:42:26.596Z,791.21
2018-05-11T00:42:30.987Z,791.2
2018-05-11T00:42:35.195Z,791.22
2018-05-11T00:42:39.513Z,791.27
2018-05-11T00:42:43.850Z,791.22
2018-05-11T00:42:48.162Z,791.23
2018-05-11T00:42:52.477Z,791.2
2018-05-11T00:42:56.694Z,791.26
2018-05-11T00:43:01.013Z,791.23
2018-05-11T00:43:05.229Z,791.24
2018-05-11T00:43:09.327Z,791.19
2018-05-11T00:43:13.546Z,791.24
2018-05-11T00:43:17.877Z,791.21
2018-05-11T00:43:22.191Z,791.22
2018-05-11T00:43:26.399Z,791.29
2018-05-11T00:43:30.499Z,791.27
2018-05-11T00:43:34.604Z,791.26
2018-05-11T00:43:38.810Z,791.27
2018-05-11T00:43:43.020Z,791.25
2018-05-11T00:43:47.336Z,791.24
2018-05-11T00:43:51.652Z,791.28
2018-05-11T00:43:55.862Z,791.29
2018-05-11T00:43:59.855Z,791.27
2018-05-11T00:44:04.106Z,791.26
2018-05-11T00:44:08.325Z,791.26
2018-05-11T00:44:12.421Z,791.29
2018-05-11T00:44:16.629Z,791.27
2018-05-11T00:44:20.846Z,791.25
2018-05-11T00:44:24.947Z,791.25
2018-05-11T00:44:29.162Z,791.24
2018-05-11T00:44:33.383Z,791.24
2018-05-11T00:44:37.591Z,791.29
2018-05-11T00:44:41.795Z,791.29
2018-05-11T00:44:45.899Z,791.3
2018-05-11T00:44:50.225Z,791.3
2018-05-11T00:44:54.440Z,791.28
2018-05-11T00:44:58.759Z,791.3
2018-05-11T00:45:03.092Z,791.33
2018-05-11T00:45:07.209Z,791.31
2018-05-11T00:45:11.411Z,791.32
2018-05-11T00:45:15.518Z,791.28
2018-05-11T00:45:19.729Z,791.3
2018-05-11T00:45:23.940Z,791.31
2018-05-11T00:45:28.150Z,791.3
2018-05-11T00:45:32.480Z,791.33
2018-05-11T00:45:36.700Z,791.28
2018-05-11T00:45:40.912Z,791.33
2018-05-11T00:45:45.243Z,791.35
2018-05-11T00:45:49.447Z,791.32
2018-05-11T00:45:53.660Z,791.33
2018-05-11T00:45:57.979Z,791.29
2018-05-11T00:46:02.080Z,791.32
2018-05-11T00:46:06.392Z,791.31
2018-05-11T00:46:10.716Z,791.31
2018-05-11T00:46:14.942Z,791.32
2018-05-11T00:46:19.154Z,791.3
2018-05-11T00:46:23.373Z,791.34
2018-05-11T00:46:27.492Z,791.29
2018-05-11T00:46:31.704Z,791.34
2018-05-11T00:46:36.027Z,791.33
2018-05-11T00:46:40.238Z,791.33
2018-05-11T00:46:44.445Z,791.34
2018-05-11T00:46:48.761Z,791.34
2018-05-11T00:46:52.962Z,791.33
2018-05-11T00:46:57.166Z,791.35
2018-05-11T00:47:01.267Z,791.34
2018-05-11T00:47:05.343Z,791.36
2018-05-11T00:47:09.667Z,791.36
2018-05-11T00:47:13.886Z,791.36
2018-05-11T00:47:17.983Z,791.35
2018-05-11T00:47:22.296Z,791.35
2018-05-11T00:47:26.616Z,791.36
2018-05-11T00:47:30.727Z,791.37
2018-05-11T00:47:34.941Z,791.36
2018-05-11T00:47:39.163Z,791.37
2018-05-11T00:47:43.384Z,791.38
2018-05-11T00:47:47.595Z,791.39
2018-05-11T00:47:51.910Z,791.38
2018-05-11T00:47:56.225Z,791.37
2018-05-11T00:48:00.431Z,791.4
2018-05-11T00:48:04.535Z,791.4
2018-05-11T00:48:08.856Z,791.37
2018-05-11T00:48:13.068Z,791.38
2018-05-11T00:48:17.171Z,791.41
2018-05-11T00:48:21.179Z,791.42
2018-05-11T00:48:25.496Z,791.42
2018-05-11T00:48:29.711Z,791.43
2018-05-11T00:48:33.916Z,791.41
2018-05-11T00:48:38.243Z,791.42
2018-05-11T00:48:42.455Z,791.42
2018-05-11T00:48:46.776Z,791.42
2018-05-11T00:48:50.991Z,791.36
2018-05-11T00:48:55.311Z,791.41
2018-05-11T00:48:59.630Z,791.39
2018-05-11T00:49:04.100Z,791.41
2018-05-11T00:49:08.420Z,791.45
2018-05-11T00:49:12.741Z,791.48
2018-05-11T00:49:16.732Z,791.49
2018-05-11T00:49:20.835Z,791.46
2018-05-11T00:49:24.934Z,791.44
2018-05-11T00:49:29.142Z,791.44
2018-05-11T00:49:33.351Z,791.45
2018-05-11T00:49:37.665Z,791.47
2018-05-11T00:49:41.666Z,791.46
2018-05-11T00:49:45.882Z,791.47
2018-05-11T00:49:50.086Z,791.47
2018-05-11T00:49:54.416Z,791.51
2018-05-11T00:49:58.518Z,791.44
2018-05-11T00:50:02.797Z,791.5
2018-05-11T00:50:07.127Z,791.49
2018-05-11T00:50:11.449Z,791.52
2018-05-11T00:50:15.452Z,791.48
2018-05-11T00:50:19.657Z,791.47
2018-05-11T00:50:23.976Z,791.45
2018-05-11T00:50:28.195Z,791.53
2018-05-11T00:50:32.408Z,791.5
2018-05-11T00:50:36.723Z,791.52
2018-05-11T00:50:40.929Z,791.52
2018-05-11T00:50:45.262Z,791.54
2018-05-11T00:50:49.471Z,791.54
2018-05-11T00:50:53.574Z,791.54
2018-05-11T00:50:57.960Z,791.54
2018-05-11T00:51:02.262Z,791.55
2018-05-11T00:51:06.845Z,791.55
2018-05-11T00:51:11.823Z,791.58
2018-05-11T00:51:16.238Z,791.57
2018-05-11T00:51:20.238Z,791.53
2018-05-11T00:51:24.557Z,791.54
2018-05-11T00:51:28.766Z,791.55
2018-05-11T00:51:32.970Z,791.55
2018-05-11T00:51:37.080Z,791.55
2018-05-11T00:51:41.070Z,791.55
2018-05-11T00:51:45.194Z,791.55
2018-05-11T00:51:49.410Z,791.57
2018-05-11T00:51:53.624Z,791.58
2018-05-11T00:51:57.956Z,791.55
2018-05-11T00:52:02.270Z,791.57
2018-05-11T00:52:06.391Z,791.6
2018-05-11T00:52:10.602Z,791.55
2018-05-11T00:52:14.917Z,791.57
2018-05-11T00:52:19.028Z,791.56
2018-05-11T00:52:23.242Z,791.61
2018-05-11T00:52:27.558Z,791.61
2018-05-11T00:52:31.889Z,791.6
2018-05-11T00:52:36.210Z,791.59
2018-05-11T00:52:40.308Z,791.6
2018-05-11T00:52:44.512Z,791.6
2018-05-11T00:52:48.618Z,791.59
2018-05-11T00:52:52.837Z,791.61
2018-05-11T00:52:57.047Z,791.59
2018-05-11T00:53:01.253Z,791.59
2018-05-11T00:53:05.261Z,791.6
2018-05-11T00:53:09.469Z,791.58
2018-05-11T00:53:13.686Z,791.59
2018-05-11T00:53:17.897Z,791.62
2018-05-11T00:53:21.996Z,791.6
2018-05-11T00:53:26.114Z,791.57
2018-05-11T00:53:30.445Z,791.53